createdAt,value
2023-03-27T00:00:30.372Z,98664.94
2023-03-27T00:01:11.072Z,98653.16
2023-03-27T00:01:51.276Z,98674.94
2023-03-27T00:02:32.251Z,98659.78
2023-03-27T00:03:12.376Z,98647.28
2023-03-27T00:03:56.109Z,98653.53
2023-03-27T00:04:36.216Z,98664.66
2023-03-27T00:05:17.129Z,98658.59
2023-03-27T00:06:16.526Z,98671.59
2023-03-27T00:06:57.125Z,98658.47
2023-03-27T00:07:37.297Z,98654.94
2023-03-27T00:08:18.092Z,98681.56
2023-03-27T00:08:58.303Z,98644.16
2023-03-27T00:09:39.105Z,98659.31
2023-03-27T00:10:26.222Z,98657.91
2023-03-27T00:11:21.101Z,98656.22
2023-03-27T00:12:15.118Z,98666.03
2023-03-27T00:13:10.115Z,98679.13
2023-03-27T00:14:04.094Z,98683.25
2023-03-27T00:14:59.082Z,98670.50
2023-03-27T00:15:46.106Z,98672.28
2023-03-27T00:16:21.526Z,98686.84
2023-03-27T00:17:10.084Z,98689.97
2023-03-27T00:17:44.305Z,98666.66
2023-03-27T00:18:33.066Z,98671.31
2023-03-27T00:19:14.165Z,98682.78
2023-03-27T00:19:55.086Z,98670.16
2023-03-27T00:20:37.356Z,98692.88
2023-03-27T00:21:17.130Z,98686.16
2023-03-27T00:21:57.178Z,98689.84
2023-03-27T00:22:44.107Z,98693.44
2023-03-27T00:23:25.155Z,98663.97
2023-03-27T00:24:13.082Z,98684.75
2023-03-27T00:24:47.174Z,98685.91
2023-03-27T00:25:36.063Z,98673.78
2023-03-27T00:26:11.812Z,98694.56
2023-03-27T00:26:52.089Z,98679.22
2023-03-27T00:27:32.168Z,98686.28
2023-03-27T00:28:12.080Z,98652.22
2023-03-27T00:28:53.493Z,98686.63
2023-03-27T00:29:34.082Z,98671.78
2023-03-27T00:30:15.635Z,98684.47
2023-03-27T00:30:56.274Z,98668.44
2023-03-27T00:31:37.196Z,98689.66
2023-03-27T00:32:17.130Z,98666.53
2023-03-27T00:32:57.392Z,98683.91
2023-03-27T00:33:38.083Z,98680.19
2023-03-27T00:34:18.173Z,98679.16
2023-03-27T00:34:58.078Z,98675.44
2023-03-27T00:35:38.157Z,98691.09
2023-03-27T00:36:19.058Z,98679.81
2023-03-27T00:36:59.192Z,98635.81
2023-03-27T00:37:39.087Z,98684.00
2023-03-27T00:38:20.842Z,98667.13
2023-03-27T00:39:02.060Z,98674.72
2023-03-27T00:39:42.546Z,98695.59
2023-03-27T00:40:24.073Z,98677.56
2023-03-27T00:41:04.850Z,98667.03
2023-03-27T00:41:45.077Z,98691.78
2023-03-27T00:42:27.208Z,98692.94
2023-03-27T00:43:08.085Z,98689.25
2023-03-27T00:43:50.147Z,98690.22
2023-03-27T00:44:39.676Z,98684.13
2023-03-27T00:45:24.162Z,98699.81
2023-03-27T00:46:21.121Z,98698.97
2023-03-27T00:47:03.225Z,98689.03
2023-03-27T00:47:45.084Z,98691.97
2023-03-27T00:48:27.112Z,98689.47
2023-03-27T00:49:03.180Z,98697.47
2023-03-27T00:49:50.039Z,98687.69
2023-03-27T00:50:33.137Z,98668.44
2023-03-27T00:51:21.065Z,98669.47
2023-03-27T00:51:57.153Z,98676.91
2023-03-27T00:52:50.060Z,98675.09
2023-03-27T00:53:38.083Z,98667.84
2023-03-27T00:54:37.073Z,98692.16
2023-03-27T00:55:32.060Z,98677.94
2023-03-27T00:56:28.071Z,98680.97
2023-03-27T00:57:29.054Z,98674.28
2023-03-27T00:58:47.101Z,98662.50
2023-03-27T00:59:47.045Z,98671.22
2023-03-27T01:00:42.067Z,98657.06
2023-03-27T01:01:38.095Z,98688.91
2023-03-27T01:02:33.114Z,98680.00
2023-03-27T01:03:27.130Z,98676.94
2023-03-27T01:04:10.042Z,98689.28
2023-03-27T01:04:50.124Z,98682.31
2023-03-27T01:05:30.042Z,98677.91
2023-03-27T01:06:13.838Z,98676.38
2023-03-27T01:06:57.067Z,98671.63
2023-03-27T01:07:38.156Z,98665.06
2023-03-27T01:08:19.047Z,98691.16
2023-03-27T01:08:59.258Z,98660.97
2023-03-27T01:09:40.043Z,98692.06
2023-03-27T01:10:21.322Z,98682.25
2023-03-27T01:11:04.027Z,98685.97
2023-03-27T01:12:14.159Z,98675.84
2023-03-27T01:13:27.079Z,98673.44
2023-03-27T01:14:15.546Z,98664.38
2023-03-27T01:15:22.060Z,98683.63
2023-03-27T01:16:33.114Z,98678.88
2023-03-27T01:17:44.059Z,98683.25
2023-03-27T01:18:43.115Z,98680.69
2023-03-27T01:19:58.028Z,98694.69
2023-03-27T01:21:21.042Z,98693.50
2023-03-27T01:22:07.329Z,98693.69
2023-03-27T01:23:58.858Z,98694.53
2023-03-27T01:25:01.175Z,98698.06
2023-03-27T01:26:36.229Z,98677.72
2023-03-27T01:27:20.174Z,98677.00
2023-03-27T01:28:19.006Z,98697.78
2023-03-27T01:29:29.137Z,98692.66
2023-03-27T01:30:25.048Z,98686.84
2023-03-27T01:31:52.117Z,98682.72
2023-03-27T01:33:14.013Z,98688.25
2023-03-27T01:35:01.058Z,98681.50
2023-03-27T01:36:09.999Z,98676.81
2023-03-27T01:37:36.081Z,98674.63
2023-03-27T01:39:14.091Z,98682.00
2023-03-27T01:40:32.018Z,98656.75
2023-03-27T01:41:43.026Z,98679.38
2023-03-27T01:42:46.032Z,98678.59
2023-03-27T01:43:45.002Z,98681.66
2023-03-27T01:45:15.987Z,98679.81
2023-03-27T01:46:26.031Z,98680.34
2023-03-27T01:47:29.033Z,98679.59
2023-03-27T01:48:41.063Z,98682.94
2023-03-27T01:49:27.081Z,98682.44
2023-03-27T01:50:31.982Z,98680.88
2023-03-27T01:51:29.096Z,98673.44
2023-03-27T01:52:15.010Z,98669.09
2023-03-27T01:53:06.479Z,98663.84
2023-03-27T01:53:56.016Z,98658.75
2023-03-27T01:54:45.168Z,98666.28
2023-03-27T01:55:30.975Z,98644.69
2023-03-27T01:56:53.733Z,98656.50
2023-03-27T01:57:55.983Z,98681.53
2023-03-27T01:58:42.184Z,98683.75
2023-03-27T01:59:24.008Z,98664.28
2023-03-27T02:00:19.496Z,98683.06
2023-03-27T02:01:04.141Z,98676.25
2023-03-27T02:01:47.146Z,98683.31
2023-03-27T02:02:35.006Z,98632.34
2023-03-27T02:03:43.760Z,98689.44
2023-03-27T02:04:28.001Z,98657.53
2023-03-27T02:05:36.156Z,98701.19
2023-03-27T02:06:22.984Z,98683.00
2023-03-27T02:07:11.927Z,98669.81
2023-03-27T02:08:00.989Z,98666.81
2023-03-27T02:08:49.085Z,98668.72
2023-03-27T02:09:36.996Z,98681.16
2023-03-27T02:10:21.689Z,98679.41
2023-03-27T02:11:04.981Z,98680.56
2023-03-27T02:12:02.089Z,98680.56
2023-03-27T02:12:53.995Z,98650.09
2023-03-27T02:14:00.985Z,98674.13
2023-03-27T02:15:25.537Z,98684.09
2023-03-27T02:16:22.995Z,98672.59
2023-03-27T02:17:21.027Z,98690.81
2023-03-27T02:18:18.018Z,98687.13
2023-03-27T02:19:16.968Z,98686.84
2023-03-27T02:20:22.970Z,98678.38
2023-03-27T02:21:04.042Z,98692.63
2023-03-27T02:21:45.950Z,98697.00
2023-03-27T02:22:38.131Z,98680.97
2023-03-27T02:23:22.824Z,98682.44
2023-03-27T02:24:03.958Z,98681.44
2023-03-27T02:24:44.127Z,98684.31
2023-03-27T02:25:31.994Z,98704.03
2023-03-27T02:26:12.058Z,98703.88
2023-03-27T02:26:53.991Z,98699.97
2023-03-27T02:27:55.064Z,98712.41
2023-03-27T02:28:51.944Z,98712.56
2023-03-27T02:29:49.059Z,98716.59
2023-03-27T02:30:46.989Z,98696.03
2023-03-27T02:32:30.217Z,98730.91
2023-03-27T02:33:34.944Z,98722.31
2023-03-27T02:34:39.265Z,98729.41
2023-03-27T02:35:41.972Z,98736.81
2023-03-27T02:36:34.964Z,98727.47
2023-03-27T02:37:42.076Z,98717.72
2023-03-27T02:38:51.961Z,98714.88
2023-03-27T02:39:55.184Z,98733.97
2023-03-27T02:41:08.961Z,98727.31
2023-03-27T02:42:06.034Z,98747.28
2023-03-27T02:43:23.919Z,98746.44
2023-03-27T02:44:22.953Z,98750.16
2023-03-27T02:46:06.978Z,98745.13
2023-03-27T02:47:11.963Z,98765.91
2023-03-27T02:48:17.020Z,98739.63
2023-03-27T02:49:17.928Z,98761.69
2023-03-27T02:50:21.948Z,98734.97
2023-03-27T02:51:53.939Z,98748.00
2023-03-27T02:52:51.967Z,98751.59
2023-03-27T02:53:33.055Z,98754.03
2023-03-27T02:54:23.948Z,98752.03
2023-03-27T02:55:11.003Z,98757.34
2023-03-27T02:55:56.919Z,98736.22
2023-03-27T02:56:40.288Z,98697.63
2023-03-27T02:57:25.322Z,98724.94
2023-03-27T02:58:13.960Z,98728.94
2023-03-27T02:59:26.076Z,98736.22
2023-03-27T03:00:34.950Z,98764.13
2023-03-27T03:01:10.024Z,98761.38
2023-03-27T03:01:57.965Z,98738.22
2023-03-27T03:02:38.066Z,98740.69
2023-03-27T03:03:35.039Z,98752.59
2023-03-27T03:04:17.059Z,98751.66
2023-03-27T03:05:18.943Z,98763.25
2023-03-27T03:05:54.021Z,98767.75
2023-03-27T03:06:41.904Z,98732.09
2023-03-27T03:07:18.575Z,98747.44
2023-03-27T03:08:05.921Z,98752.63
2023-03-27T03:08:47.966Z,98770.84
2023-03-27T03:09:43.956Z,98766.94
2023-03-27T03:10:39.936Z,98770.09
2023-03-27T03:11:35.926Z,98765.88
2023-03-27T03:12:29.928Z,98789.00
2023-03-27T03:13:23.946Z,98778.69
2023-03-27T03:14:11.956Z,98785.31
2023-03-27T03:14:47.994Z,98776.38
2023-03-27T03:15:34.921Z,98787.75
2023-03-27T03:16:09.929Z,98776.56
2023-03-27T03:16:56.988Z,98755.94
2023-03-27T03:17:31.187Z,98756.41
2023-03-27T03:18:19.917Z,98770.19
2023-03-27T03:18:54.035Z,98776.81
2023-03-27T03:19:34.928Z,98782.00
2023-03-27T03:20:17.031Z,98776.94
2023-03-27T03:21:00.941Z,98790.19
2023-03-27T03:21:41.020Z,98793.38
2023-03-27T03:22:21.901Z,98784.75
2023-03-27T03:23:03.051Z,98776.25
2023-03-27T03:23:42.918Z,98791.78
2023-03-27T03:24:47.954Z,98775.81
2023-03-27T03:25:41.949Z,98788.19
2023-03-27T03:26:36.944Z,98770.09
2023-03-27T03:27:30.892Z,98807.13
2023-03-27T03:28:24.931Z,98795.91
2023-03-27T03:29:18.989Z,98781.56
2023-03-27T03:30:07.034Z,98796.28
2023-03-27T03:30:42.941Z,98808.81
2023-03-27T03:31:30.930Z,98800.34
2023-03-27T03:32:06.293Z,98794.16
2023-03-27T03:32:53.938Z,98815.31
2023-03-27T03:33:29.984Z,98801.94
2023-03-27T03:34:24.882Z,98804.91
2023-03-27T03:35:01.548Z,98804.00
2023-03-27T03:35:42.919Z,98823.13
2023-03-27T03:36:23.990Z,98802.44
2023-03-27T03:37:03.901Z,98820.03
2023-03-27T03:37:50.971Z,98812.28
2023-03-27T03:38:38.108Z,98787.19
2023-03-27T03:39:19.092Z,98810.28
2023-03-27T03:39:59.893Z,98810.25
2023-03-27T03:40:39.968Z,98802.03
2023-03-27T03:41:19.892Z,98777.59
2023-03-27T03:42:00.975Z,98811.63
2023-03-27T03:42:40.903Z,98818.53
2023-03-27T03:43:21.470Z,98800.22
2023-03-27T03:44:02.896Z,98802.06
2023-03-27T03:44:42.994Z,98821.34
2023-03-27T03:45:24.881Z,98813.97
2023-03-27T03:46:05.052Z,98825.13
2023-03-27T03:46:45.948Z,98825.56
2023-03-27T03:47:25.986Z,98811.28
2023-03-27T03:48:06.895Z,98815.06
2023-03-27T03:48:46.976Z,98836.03
2023-03-27T03:49:27.899Z,98838.94
2023-03-27T03:50:08.101Z,98814.50
2023-03-27T03:50:49.928Z,98815.31
2023-03-27T03:51:31.550Z,98832.13
2023-03-27T03:52:12.883Z,98817.75
2023-03-27T03:52:53.064Z,98818.75
2023-03-27T03:53:32.886Z,98843.28
2023-03-27T03:54:12.966Z,98829.59
2023-03-27T03:54:53.850Z,98831.59
2023-03-27T03:55:33.972Z,98839.34
2023-03-27T03:56:14.886Z,98835.38
2023-03-27T03:56:54.990Z,98822.28
2023-03-27T03:57:35.896Z,98836.66
2023-03-27T03:58:16.445Z,98817.09
2023-03-27T03:58:57.861Z,98857.34
2023-03-27T03:59:38.283Z,98820.63
2023-03-27T04:00:18.912Z,98833.06
2023-03-27T04:01:02.809Z,98842.94
2023-03-27T04:01:42.904Z,98859.72
2023-03-27T04:02:29.190Z,98820.75
2023-03-27T04:03:10.977Z,98857.72
2023-03-27T04:03:51.184Z,98836.13
2023-03-27T04:04:31.887Z,98836.69
2023-03-27T04:05:13.080Z,98822.00
2023-03-27T04:05:52.863Z,98870.13
2023-03-27T04:06:37.708Z,98870.31
2023-03-27T04:07:17.860Z,98864.09
2023-03-27T04:07:59.378Z,98877.06
2023-03-27T04:08:41.885Z,98845.72
2023-03-27T04:09:22.359Z,98879.31
2023-03-27T04:10:02.883Z,98864.75
2023-03-27T04:10:44.952Z,98877.84
2023-03-27T04:11:25.877Z,98869.69
2023-03-27T04:12:06.126Z,98873.63
2023-03-27T04:12:46.860Z,98886.91
2023-03-27T04:13:26.978Z,98841.78
2023-03-27T04:14:07.857Z,98870.41
2023-03-27T04:14:47.953Z,98860.84
2023-03-27T04:15:27.848Z,98873.25
2023-03-27T04:16:08.162Z,98879.34
2023-03-27T04:16:48.855Z,98879.25
2023-03-27T04:17:30.170Z,98852.47
2023-03-27T04:18:10.962Z,98883.00
2023-03-27T04:18:54.286Z,98856.84
2023-03-27T04:19:34.908Z,98891.31
2023-03-27T04:20:17.194Z,98892.56
2023-03-27T04:20:57.941Z,98869.06
2023-03-27T04:21:37.993Z,98871.09
2023-03-27T04:22:23.872Z,98889.56
2023-03-27T04:23:04.010Z,98887.44
2023-03-27T04:23:44.878Z,98877.44
2023-03-27T04:24:25.007Z,98884.88
2023-03-27T04:25:05.856Z,98882.00
2023-03-27T04:25:48.659Z,98900.94
2023-03-27T04:26:33.834Z,98893.88
2023-03-27T04:27:13.944Z,98870.66
2023-03-27T04:27:57.828Z,98885.06
2023-03-27T04:28:37.936Z,98897.78
2023-03-27T04:29:18.881Z,98878.72
2023-03-27T04:29:58.965Z,98907.31
2023-03-27T04:30:38.886Z,98906.47
2023-03-27T04:31:19.072Z,98889.81
2023-03-27T04:31:58.856Z,98899.91
2023-03-27T04:32:39.272Z,98893.88
2023-03-27T04:33:24.853Z,98893.34
2023-03-27T04:34:04.954Z,98909.41
2023-03-27T04:34:47.212Z,98892.28
2023-03-27T04:35:28.052Z,98896.69
2023-03-27T04:36:09.024Z,98900.25
2023-03-27T04:36:50.285Z,98924.56
2023-03-27T04:37:30.883Z,98923.09
2023-03-27T04:38:11.033Z,98926.25
2023-03-27T04:38:51.853Z,98910.00
2023-03-27T04:39:39.559Z,98907.84
2023-03-27T04:40:24.894Z,98920.13
2023-03-27T04:41:04.906Z,98930.59
2023-03-27T04:41:45.887Z,98924.66
2023-03-27T04:42:25.950Z,98926.00
2023-03-27T04:43:05.864Z,98926.84
2023-03-27T04:43:46.179Z,98916.13
2023-03-27T04:44:26.851Z,98908.50
2023-03-27T04:45:08.114Z,98926.88
2023-03-27T04:45:53.871Z,98900.63
2023-03-27T04:46:34.074Z,98921.31
2023-03-27T04:47:14.912Z,98940.38
2023-03-27T04:47:56.003Z,98929.22
2023-03-27T04:48:35.826Z,98921.31
2023-03-27T04:49:20.192Z,98937.56
2023-03-27T04:50:00.870Z,98938.06
2023-03-27T04:50:40.935Z,98925.22
2023-03-27T04:51:21.833Z,98945.88
2023-03-27T04:52:02.979Z,98938.94
2023-03-27T04:52:43.869Z,98925.38
2023-03-27T04:53:30.129Z,98947.97
2023-03-27T04:54:10.820Z,98898.91
2023-03-27T04:55:04.913Z,98946.28
2023-03-27T04:55:59.917Z,98944.19
2023-03-27T04:56:53.884Z,98918.78
2023-03-27T04:57:48.975Z,98925.75
2023-03-27T04:58:42.851Z,98934.72
2023-03-27T04:59:37.848Z,98927.50
2023-03-27T05:00:32.839Z,98941.69
2023-03-27T05:01:26.887Z,98920.00
2023-03-27T05:02:21.142Z,98916.75
2023-03-27T05:03:08.959Z,98938.91
2023-03-27T05:03:42.975Z,98937.00
2023-03-27T05:04:32.880Z,98938.69
2023-03-27T05:05:06.900Z,98933.13
2023-03-27T05:05:55.820Z,98935.66
2023-03-27T05:06:32.894Z,98934.81
2023-03-27T05:07:19.866Z,98937.03
2023-03-27T05:07:54.997Z,98932.59
2023-03-27T05:08:34.863Z,98944.75
2023-03-27T05:09:15.564Z,98945.69
2023-03-27T05:09:55.880Z,98929.53
2023-03-27T05:10:35.982Z,98929.28
2023-03-27T05:11:17.804Z,98937.88
2023-03-27T05:11:58.917Z,98928.75
2023-03-27T05:12:39.805Z,98945.53
2023-03-27T05:13:20.910Z,98942.06
2023-03-27T05:14:00.881Z,98933.44
2023-03-27T05:14:41.044Z,98957.25
2023-03-27T05:15:23.826Z,98936.03
2023-03-27T05:16:04.889Z,98932.09
2023-03-27T05:16:44.933Z,98945.41
2023-03-27T05:17:27.051Z,98940.66
2023-03-27T05:18:07.856Z,98946.44
2023-03-27T05:18:47.950Z,98940.16
2023-03-27T05:19:28.842Z,98942.28
2023-03-27T05:20:11.803Z,98940.72
2023-03-27T05:20:56.139Z,98955.41
2023-03-27T05:21:37.267Z,98925.09
2023-03-27T05:22:17.826Z,98957.38
2023-03-27T05:23:02.065Z,98936.53
2023-03-27T05:23:42.804Z,98945.81
2023-03-27T05:24:22.900Z,98954.31
2023-03-27T05:25:02.812Z,98932.91
2023-03-27T05:25:59.436Z,98959.06
2023-03-27T05:26:40.784Z,98954.81
2023-03-27T05:27:21.145Z,98943.84
2023-03-27T05:28:01.815Z,98954.53
2023-03-27T05:28:42.151Z,98957.44
2023-03-27T05:29:22.821Z,98948.53
2023-03-27T05:30:10.870Z,98991.50
2023-03-27T05:31:06.059Z,98939.50
2023-03-27T05:32:01.526Z,98973.72
2023-03-27T05:33:05.840Z,98945.34
2023-03-27T05:33:59.872Z,98955.31
2023-03-27T05:34:56.833Z,98937.69
2023-03-27T05:35:37.840Z,98955.28
2023-03-27T05:36:18.937Z,98965.06
2023-03-27T05:36:59.761Z,98962.41
2023-03-27T05:37:39.925Z,98961.41
2023-03-27T05:38:20.812Z,98969.19
2023-03-27T05:39:01.994Z,98965.56
2023-03-27T05:39:42.789Z,98960.91
2023-03-27T05:40:27.668Z,98978.78
2023-03-27T05:41:08.805Z,98975.97
2023-03-27T05:41:48.951Z,98945.63
2023-03-27T05:42:29.814Z,98969.16
2023-03-27T05:43:10.902Z,98973.63
2023-03-27T05:43:51.836Z,98961.03
2023-03-27T05:44:31.941Z,98977.94
2023-03-27T05:45:12.829Z,98964.81
2023-03-27T05:45:53.037Z,98972.59
2023-03-27T05:46:32.874Z,98979.28
2023-03-27T05:47:14.423Z,98980.59
2023-03-27T05:48:03.830Z,98988.84
2023-03-27T05:48:43.964Z,98977.47
2023-03-27T05:49:23.875Z,98998.22
2023-03-27T05:50:03.965Z,98968.44
2023-03-27T05:50:43.807Z,98979.75
2023-03-27T05:51:23.951Z,98968.34
2023-03-27T05:52:04.828Z,98986.34
2023-03-27T05:52:44.963Z,98998.22
2023-03-27T05:53:28.169Z,98981.34
2023-03-27T05:54:08.935Z,98968.38
2023-03-27T05:54:49.788Z,99004.19
2023-03-27T05:55:30.188Z,98986.81
2023-03-27T05:56:10.788Z,98941.28
2023-03-27T05:56:51.222Z,98983.06
2023-03-27T05:57:30.871Z,98995.53
2023-03-27T05:58:13.325Z,98983.78
2023-03-27T05:58:53.789Z,99003.69
2023-03-27T05:59:34.799Z,99003.34
2023-03-27T06:00:20.786Z,98998.84
2023-03-27T06:01:01.383Z,98990.84
2023-03-27T06:01:42.791Z,98999.00
2023-03-27T06:02:23.346Z,98997.03
2023-03-27T06:03:06.983Z,98995.53
2023-03-27T06:03:49.170Z,99005.53
2023-03-27T06:04:29.802Z,98993.16
2023-03-27T06:05:16.026Z,99018.78
2023-03-27T06:05:56.735Z,99010.63
2023-03-27T06:06:36.892Z,99026.19
2023-03-27T06:07:18.778Z,99008.31
2023-03-27T06:07:58.999Z,99021.44
2023-03-27T06:08:39.772Z,99010.88
2023-03-27T06:09:19.816Z,99023.16
2023-03-27T06:10:00.935Z,99024.97
2023-03-27T06:10:40.902Z,99008.19
2023-03-27T06:11:21.843Z,99021.91
2023-03-27T06:12:01.852Z,99016.34
2023-03-27T06:12:43.808Z,99029.72
2023-03-27T06:13:24.271Z,99035.28
2023-03-27T06:14:05.959Z,99032.38
2023-03-27T06:14:46.641Z,99019.72
2023-03-27T06:15:27.760Z,99042.44
2023-03-27T06:16:08.968Z,99027.16
2023-03-27T06:16:49.759Z,99047.94
2023-03-27T06:17:29.907Z,99020.00
2023-03-27T06:18:10.783Z,99035.78
2023-03-27T06:18:51.157Z,99019.88
2023-03-27T06:19:31.787Z,99031.22
2023-03-27T06:20:15.593Z,99038.47
2023-03-27T06:20:56.842Z,99044.31
2023-03-27T06:21:37.203Z,99041.78
2023-03-27T06:22:18.834Z,99035.56
2023-03-27T06:23:06.440Z,99026.06
2023-03-27T06:23:47.756Z,99032.38
2023-03-27T06:24:27.872Z,99046.97
2023-03-27T06:25:07.772Z,99053.78
2023-03-27T06:25:47.875Z,99050.63
2023-03-27T06:26:28.782Z,99004.81
2023-03-27T06:27:10.837Z,99043.31
2023-03-27T06:27:53.742Z,99063.00
2023-03-27T06:28:35.883Z,99067.38
2023-03-27T06:29:16.792Z,99060.19
2023-03-27T06:29:56.888Z,99049.97
2023-03-27T06:30:59.838Z,99060.13
2023-03-27T06:31:53.822Z,99059.63
2023-03-27T06:32:47.774Z,99047.31
2023-03-27T06:33:41.738Z,99067.00
2023-03-27T06:34:35.733Z,99072.88
2023-03-27T06:35:32.783Z,99064.19
2023-03-27T06:36:19.786Z,99074.31
2023-03-27T06:36:54.075Z,99069.31
2023-03-27T06:37:43.746Z,99081.34
2023-03-27T06:38:19.053Z,99081.09
2023-03-27T06:39:05.744Z,99083.63
2023-03-27T06:39:39.964Z,99087.16
2023-03-27T06:40:30.750Z,99100.38
2023-03-27T06:41:05.846Z,99084.84
2023-03-27T06:41:45.951Z,99088.00
2023-03-27T06:42:26.057Z,99081.47
2023-03-27T06:43:14.723Z,99076.84
2023-03-27T06:43:54.861Z,99096.41
2023-03-27T06:44:35.818Z,99072.84
2023-03-27T06:45:16.968Z,99092.22
2023-03-27T06:45:57.979Z,99112.69
2023-03-27T06:46:45.442Z,99083.16
2023-03-27T06:47:25.801Z,99113.41
2023-03-27T06:48:16.978Z,99104.28
2023-03-27T06:49:01.757Z,99085.09
2023-03-27T06:49:47.572Z,99083.38
2023-03-27T06:50:29.703Z,99106.38
2023-03-27T06:51:09.794Z,99103.56
2023-03-27T06:51:50.783Z,99099.31
2023-03-27T06:52:37.800Z,99109.16
2023-03-27T06:53:37.356Z,99119.38
2023-03-27T06:54:31.737Z,99125.66
2023-03-27T06:55:25.720Z,99123.22
2023-03-27T06:56:20.701Z,99092.13
2023-03-27T06:57:14.732Z,99104.50
2023-03-27T06:58:04.732Z,99115.44
2023-03-27T06:58:38.945Z,99132.25
2023-03-27T06:59:25.731Z,99118.91
2023-03-27T07:00:02.323Z,99109.91
2023-03-27T07:00:49.995Z,99133.25
2023-03-27T07:01:24.058Z,99133.25
2023-03-27T07:02:10.736Z,99119.50
2023-03-27T07:02:44.838Z,99114.88
2023-03-27T07:03:27.696Z,99127.00
2023-03-27T07:04:07.797Z,99117.31
2023-03-27T07:04:57.832Z,99107.72
2023-03-27T07:05:48.840Z,99124.13
2023-03-27T07:06:28.693Z,99135.19
2023-03-27T07:07:02.480Z,99137.09
2023-03-27T07:07:49.682Z,99123.50
2023-03-27T07:08:25.584Z,99129.22
2023-03-27T07:09:05.731Z,99119.63
2023-03-27T07:09:40.214Z,99135.94
2023-03-27T07:10:15.434Z,99136.44
2023-03-27T07:11:10.936Z,99128.69
2023-03-27T07:11:45.801Z,99124.53
2023-03-27T07:12:20.688Z,99137.41
2023-03-27T07:13:01.700Z,99133.41
2023-03-27T07:13:35.891Z,99150.94
2023-03-27T07:14:15.753Z,99151.44
2023-03-27T07:14:55.814Z,99147.94
2023-03-27T07:15:35.681Z,99138.41
2023-03-27T07:16:17.866Z,99137.59
2023-03-27T07:16:58.674Z,99143.88
2023-03-27T07:17:48.912Z,99147.03
2023-03-27T07:18:29.739Z,99133.66
2023-03-27T07:19:09.918Z,99143.66
2023-03-27T07:19:49.743Z,99147.13
2023-03-27T07:20:31.828Z,99147.78
2023-03-27T07:21:13.711Z,99139.53
2023-03-27T07:21:53.808Z,99160.94
2023-03-27T07:22:33.678Z,99149.22
2023-03-27T07:23:14.767Z,99160.38
2023-03-27T07:23:54.713Z,99169.31
2023-03-27T07:24:35.929Z,99160.66
2023-03-27T07:25:18.712Z,99156.25
2023-03-27T07:26:02.881Z,99163.00
2023-03-27T07:26:42.695Z,99150.59
2023-03-27T07:27:22.742Z,99131.63
2023-03-27T07:28:06.673Z,99151.91
2023-03-27T07:28:47.928Z,99164.63
2023-03-27T07:29:27.659Z,99160.59
2023-03-27T07:30:08.824Z,99165.25
2023-03-27T07:30:49.701Z,99160.50
2023-03-27T07:31:51.030Z,99149.03
2023-03-27T07:32:37.236Z,99141.09
2023-03-27T07:33:18.892Z,99140.28
2023-03-27T07:33:58.721Z,99145.22
2023-03-27T07:34:38.754Z,99153.81
2023-03-27T07:35:19.769Z,99171.09
2023-03-27T07:36:06.688Z,99145.84
2023-03-27T07:36:40.357Z,99147.31
2023-03-27T07:37:29.659Z,99159.88
2023-03-27T07:38:03.657Z,99167.59
2023-03-27T07:38:50.688Z,99157.03
2023-03-27T07:39:25.707Z,99152.38
2023-03-27T07:40:13.703Z,99163.19
2023-03-27T07:40:47.461Z,99165.13
2023-03-27T07:41:29.671Z,99168.81
2023-03-27T07:42:03.766Z,99171.97
2023-03-27T07:42:37.479Z,99174.13
2023-03-27T07:43:18.696Z,99177.31
2023-03-27T07:43:52.774Z,99165.13
2023-03-27T07:44:26.441Z,99182.66
2023-03-27T07:45:09.682Z,99185.47
2023-03-27T07:45:43.844Z,99191.56
2023-03-27T07:46:17.647Z,99177.72
2023-03-27T07:46:59.705Z,99191.09
2023-03-27T07:47:33.736Z,99192.38
2023-03-27T07:48:11.182Z,99173.09
2023-03-27T07:48:52.656Z,99194.22
2023-03-27T07:49:38.570Z,99195.84
2023-03-27T07:50:17.210Z,99211.19
2023-03-27T07:50:58.267Z,99193.16
2023-03-27T07:51:38.692Z,99202.78
2023-03-27T07:52:19.718Z,99202.75
2023-03-27T07:53:00.712Z,99213.34
2023-03-27T07:53:41.800Z,99198.16
2023-03-27T07:54:21.754Z,99207.97
2023-03-27T07:55:03.655Z,99182.09
2023-03-27T07:55:45.114Z,99202.28
2023-03-27T07:56:27.650Z,99206.69
2023-03-27T07:57:10.285Z,99199.78
2023-03-27T07:58:01.859Z,99191.53
2023-03-27T07:58:43.777Z,99216.34
2023-03-27T07:59:26.698Z,99194.75
2023-03-27T08:00:13.765Z,99207.66
2023-03-27T08:00:57.629Z,99186.31
2023-03-27T08:01:37.726Z,99207.28
2023-03-27T08:03:26.873Z,99197.00
2023-03-27T08:04:00.656Z,99205.47
2023-03-27T08:04:48.878Z,99209.13
2023-03-27T08:05:22.880Z,99211.81
2023-03-27T08:06:13.652Z,99197.38
2023-03-27T08:06:47.382Z,99202.19
2023-03-27T08:07:34.645Z,99211.72
2023-03-27T08:08:09.749Z,99210.00
2023-03-27T08:08:50.680Z,99199.56
2023-03-27T08:09:24.708Z,99239.69
2023-03-27T08:09:58.577Z,99224.56
2023-03-27T08:10:38.639Z,99247.41
2023-03-27T08:11:23.191Z,99214.84
2023-03-27T08:12:06.810Z,99206.22
2023-03-27T08:12:47.672Z,99212.16
2023-03-27T08:13:21.778Z,99237.50
2023-03-27T08:14:01.681Z,99200.22
2023-03-27T08:14:41.775Z,99208.66
2023-03-27T08:15:22.616Z,99216.09
2023-03-27T08:16:30.335Z,99231.72
2023-03-27T08:17:16.138Z,99203.34
2023-03-27T08:17:57.047Z,99210.16
2023-03-27T08:18:37.631Z,99222.50
2023-03-27T08:19:25.619Z,99236.56
2023-03-27T08:20:02.103Z,99236.47
2023-03-27T08:20:48.620Z,99205.75
2023-03-27T08:21:23.262Z,99240.63
2023-03-27T08:22:10.658Z,99227.53
2023-03-27T08:22:44.498Z,99251.19
2023-03-27T08:23:34.623Z,99234.56
2023-03-27T08:24:09.045Z,99236.03
2023-03-27T08:24:48.644Z,99219.38
2023-03-27T08:25:22.977Z,99220.38
2023-03-27T08:26:00.610Z,99227.13
2023-03-27T08:26:41.626Z,99230.31
2023-03-27T08:27:15.711Z,99217.91
2023-03-27T08:27:49.724Z,99213.53
2023-03-27T08:28:29.629Z,99238.59
2023-03-27T08:29:03.823Z,99244.44
2023-03-27T08:29:37.390Z,99242.72
2023-03-27T08:30:21.828Z,99223.50
2023-03-27T08:30:56.101Z,99226.41
2023-03-27T08:31:36.465Z,99242.56
2023-03-27T08:32:17.611Z,99244.66
2023-03-27T08:32:51.744Z,99245.88
2023-03-27T08:33:29.272Z,99243.91
2023-03-27T08:34:10.614Z,99243.72
2023-03-27T08:34:44.811Z,99231.75
2023-03-27T08:35:18.656Z,99258.25
2023-03-27T08:35:58.751Z,99232.72
2023-03-27T08:36:34.438Z,99242.72
2023-03-27T08:37:08.820Z,99258.97
2023-03-27T08:37:50.624Z,99257.31
2023-03-27T08:38:27.006Z,99263.03
2023-03-27T08:39:02.567Z,99254.13
2023-03-27T08:39:43.631Z,99216.56
2023-03-27T08:40:28.081Z,99249.56
2023-03-27T08:41:10.615Z,99192.59
2023-03-27T08:42:01.668Z,99270.69
2023-03-27T08:42:45.599Z,99246.63
2023-03-27T08:43:29.787Z,99236.28
2023-03-27T08:44:12.593Z,99245.56
2023-03-27T08:44:54.923Z,99256.50
2023-03-27T08:45:56.769Z,99252.97
2023-03-27T08:46:54.642Z,99225.50
2023-03-27T08:47:42.652Z,99261.00
2023-03-27T08:48:22.121Z,99258.69
2023-03-27T08:49:12.619Z,99216.97
2023-03-27T08:49:58.683Z,99240.31
2023-03-27T08:50:46.903Z,99259.81
2023-03-27T08:51:53.645Z,99269.41
2023-03-27T08:52:45.631Z,99255.28
2023-03-27T08:53:30.810Z,99270.50
2023-03-27T08:54:38.579Z,99273.41
2023-03-27T08:55:24.597Z,99244.31
2023-03-27T08:56:11.625Z,99266.34
2023-03-27T08:56:45.861Z,99271.06
2023-03-27T08:57:29.612Z,99269.47
2023-03-27T08:58:03.669Z,99248.50